ENRS/RET METAR and TAF weather

Enter ICAO airport designator
Station Type Date Time Source
ENRS METAR 2018/12/13 16:20 UTC NOAA

ENRS 131620Z 21018KT 9999 VCSH FEW015 SCT020 BKN035 06/03 Q1027


Station Type Date Time Source
ENRS Decoded METAR 2018/12/13 16:20 UTC NOAA

Rost Flyplass, Norway (ENRS) 67-31N 012-06E
Dec 13, 2018 - 11:20 AM EST / 2018.12.13 1620 UTC
Wind: from the SSW (210 degrees) at 21 MPH (18 KT):0
Visibility: greater than 7 mile(s):0
Sky conditions: mostly cloudy
Weather: showers in the vicinity
Temperature: 42 F (6 C)
Dew Point: 37 F (3 C)
Relative Humidity: 81%
Pressure (altimeter): 30.33 in. Hg (1027 hPa)
ob: ENRS 131620Z 21018KT 9999 VCSH FEW015 SCT020 BKN035 06/03 Q1027
cycle: 16

Station Type Date Time Source
ENRS TAF UTC NOAA

Error!


Example: see airport list